createdAt,value
2022-08-24T00:02:26.198Z,1.92
2022-08-24T00:05:02.239Z,1.70
2022-08-24T00:07:35.268Z,1.80
2022-08-24T00:10:05.553Z,1.58
2022-08-24T00:12:37.647Z,1.70
2022-08-24T00:15:11.754Z,1.50
2022-08-24T00:17:41.345Z,1.88
2022-08-24T00:20:45.101Z,1.70
2022-08-24T00:23:17.469Z,1.45
2022-08-24T00:25:48.862Z,1.70
2022-08-24T00:28:24.352Z,1.45
2022-08-24T00:30:56.127Z,2.03
2022-08-24T00:33:28.558Z,2.20
2022-08-24T00:36:02.268Z,1.58
2022-08-24T00:38:35.881Z,1.60
2022-08-24T00:46:33.533Z,2.03
2022-08-24T00:49:33.701Z,2.25
2022-08-24T00:52:08.543Z,1.73
2022-08-24T00:54:46.053Z,2.00
2022-08-24T00:57:17.865Z,1.90
2022-08-24T00:59:50.772Z,1.75
2022-08-24T01:02:31.350Z,1.70
2022-08-24T01:05:09.653Z,1.67
2022-08-24T01:07:41.859Z,1.52
2022-08-24T01:10:14.251Z,1.92
2022-08-24T01:13:00.502Z,1.60
2022-08-24T01:15:37.882Z,2.15
2022-08-24T01:18:27.846Z,1.65
2022-08-24T01:21:05.083Z,1.88
2022-08-24T01:23:41.142Z,2.38
2022-08-24T01:26:18.441Z,1.52
2022-08-24T01:28:51.625Z,1.70
2022-08-24T01:31:22.395Z,2.45
2022-08-24T01:33:53.434Z,1.75
2022-08-24T01:36:47.580Z,1.80
2022-08-24T01:39:39.457Z,2.35
2022-08-24T01:42:16.556Z,1.85
2022-08-24T01:44:47.169Z,1.95
2022-08-24T01:47:17.243Z,1.77
2022-08-24T01:49:49.890Z,1.77
2022-08-24T01:52:25.554Z,2.17
2022-08-24T01:55:02.081Z,1.60
2022-08-24T01:57:31.534Z,1.92
2022-08-24T02:00:02.620Z,1.88
2022-08-24T02:03:45.554Z,2.50
2022-08-24T02:06:18.494Z,2.40
2022-08-24T02:08:47.250Z,1.85
2022-08-24T02:11:24.098Z,1.88
2022-08-24T02:13:52.946Z,1.70
2022-08-24T02:16:21.328Z,1.77
2022-08-24T02:18:49.494Z,1.67
2022-08-24T02:21:20.735Z,2.08
2022-08-24T02:23:49.193Z,1.80
2022-08-24T02:26:21.858Z,1.73
2022-08-24T02:28:50.392Z,1.80
2022-08-24T02:31:18.919Z,1.92
2022-08-24T02:33:47.937Z,1.77
2022-08-24T02:36:25.598Z,1.90
2022-08-24T02:38:58.513Z,1.90
2022-08-24T02:41:27.716Z,2.33
2022-08-24T02:43:57.116Z,1.88
2022-08-24T02:46:30.567Z,2.00
2022-08-24T02:49:10.411Z,1.90
2022-08-24T02:51:49.525Z,2.20
2022-08-24T02:54:21.447Z,2.25
2022-08-24T02:56:57.907Z,2.00
2022-08-24T03:00:00.058Z,2.63
2022-08-24T03:02:29.384Z,1.92
2022-08-24T03:04:57.675Z,2.40
2022-08-24T03:07:26.072Z,2.08
2022-08-24T03:09:58.398Z,2.47
2022-08-24T03:12:28.365Z,2.30
2022-08-24T03:15:00.614Z,2.30
2022-08-24T03:17:33.807Z,2.10
2022-08-24T03:20:05.106Z,2.17
2022-08-24T03:22:34.086Z,2.40
2022-08-24T03:25:11.685Z,2.05
2022-08-24T03:27:41.154Z,2.00
2022-08-24T03:30:13.508Z,2.55
2022-08-24T03:32:44.122Z,3.00
2022-08-24T03:35:14.614Z,2.10
2022-08-24T03:37:43.493Z,2.53
2022-08-24T03:40:23.039Z,2.53
2022-08-24T03:42:55.931Z,2.40
2022-08-24T03:45:33.145Z,1.90
2022-08-24T03:48:03.522Z,2.08
2022-08-24T03:55:07.700Z,2.10
2022-08-24T03:57:36.864Z,2.80
2022-08-24T04:00:13.390Z,2.08
2022-08-24T04:03:01.853Z,2.40
2022-08-24T04:05:34.897Z,2.35
2022-08-24T04:08:12.139Z,2.13
2022-08-24T04:10:55.045Z,2.30
2022-08-24T04:13:25.260Z,2.10
2022-08-24T04:15:57.730Z,2.40
2022-08-24T04:18:36.936Z,2.75
2022-08-24T04:21:06.433Z,2.40
2022-08-24T04:23:46.897Z,4.30
2022-08-24T04:26:36.412Z,2.65
2022-08-24T04:30:44.002Z,3.67
2022-08-24T04:33:15.106Z,2.60
2022-08-24T04:35:48.574Z,3.13
2022-08-24T04:38:19.331Z,3.70
2022-08-24T04:41:09.883Z,2.58
2022-08-24T04:43:48.165Z,2.78
2022-08-24T04:46:20.731Z,2.30
2022-08-24T04:48:49.730Z,2.28
2022-08-24T04:51:36.700Z,2.53
2022-08-24T04:54:08.692Z,2.70
2022-08-24T04:56:43.520Z,2.40
2022-08-24T04:59:12.451Z,2.67
2022-08-24T05:01:49.516Z,2.90
2022-08-24T05:09:41.151Z,2.97
2022-08-24T05:12:12.195Z,2.70
2022-08-24T05:14:55.781Z,2.42
2022-08-24T05:17:27.155Z,3.10
2022-08-24T05:19:58.853Z,3.10
2022-08-24T05:23:03.884Z,3.25
2022-08-24T05:25:35.208Z,2.30
2022-08-24T05:28:04.134Z,2.65
2022-08-24T05:30:42.723Z,3.15
2022-08-24T05:33:11.869Z,2.78
2022-08-24T05:35:47.931Z,3.10
2022-08-24T05:43:30.270Z,3.15
2022-08-24T05:46:00.356Z,2.25
2022-08-24T05:48:29.815Z,2.28
2022-08-24T05:51:27.007Z,3.55
2022-08-24T05:54:04.422Z,2.70
2022-08-24T05:56:44.895Z,2.92
2022-08-24T05:59:14.833Z,4.38
2022-08-24T06:01:45.646Z,4.85
2022-08-24T06:04:23.945Z,4.22
2022-08-24T06:07:00.038Z,2.08
2022-08-24T06:09:31.584Z,2.78
2022-08-24T06:12:01.393Z,2.22
2022-08-24T06:14:31.488Z,2.45
2022-08-24T06:17:09.030Z,2.72
2022-08-24T06:20:14.814Z,3.35
2022-08-24T06:22:44.717Z,3.35
2022-08-24T06:25:32.253Z,2.90
2022-08-24T06:28:01.072Z,2.70
2022-08-24T06:30:35.208Z,2.58
2022-08-24T06:33:15.901Z,2.70
2022-08-24T06:35:53.769Z,2.10
2022-08-24T06:38:31.313Z,3.28
2022-08-24T06:41:00.366Z,2.38
2022-08-24T06:43:36.342Z,2.40
2022-08-24T06:46:13.154Z,2.10
2022-08-24T06:48:45.103Z,2.58
2022-08-24T06:51:17.779Z,2.95
2022-08-24T06:53:47.627Z,2.47
2022-08-24T06:56:19.357Z,2.20
2022-08-24T06:58:48.294Z,2.20
2022-08-24T07:01:22.211Z,3.10
2022-08-24T07:03:52.245Z,2.42
2022-08-24T07:06:52.916Z,2.40
2022-08-24T07:09:25.120Z,2.25
2022-08-24T07:11:57.652Z,2.00
2022-08-24T07:14:32.285Z,3.85
2022-08-24T07:17:34.820Z,2.10
2022-08-24T07:20:03.243Z,2.50
2022-08-24T07:23:08.760Z,3.55
2022-08-24T07:25:49.585Z,2.40
2022-08-24T07:28:27.759Z,1.98
2022-08-24T07:31:01.574Z,2.17
2022-08-24T07:33:37.598Z,2.30
2022-08-24T07:36:06.858Z,2.00
2022-08-24T07:38:36.476Z,1.73
2022-08-24T07:41:33.748Z,1.42
2022-08-24T07:43:53.588Z,1.80
2022-08-24T07:46:22.988Z,1.30
2022-08-24T07:49:00.140Z,1.85
2022-08-24T07:51:44.971Z,1.83
2022-08-24T07:54:32.426Z,1.35
2022-08-24T07:57:06.932Z,1.50
2022-08-24T08:02:12.309Z,1.55
2022-08-24T08:04:44.502Z,2.13
2022-08-24T08:07:15.086Z,1.60
2022-08-24T08:09:43.964Z,2.10
2022-08-24T08:12:13.475Z,1.42
2022-08-24T08:14:59.624Z,1.33
2022-08-24T08:17:29.271Z,1.60
2022-08-24T08:19:57.942Z,2.17
2022-08-24T08:22:47.160Z,2.28
2022-08-24T08:25:39.009Z,2.05
2022-08-24T08:28:25.030Z,2.13
2022-08-24T08:30:56.820Z,2.35
2022-08-24T08:33:36.455Z,1.60
2022-08-24T08:36:12.654Z,1.70
2022-08-24T08:38:46.483Z,3.17
2022-08-24T08:41:22.082Z,1.73
2022-08-24T08:44:39.916Z,1.45
2022-08-24T08:47:27.307Z,1.30
2022-08-24T08:50:24.141Z,1.63
2022-08-24T08:53:14.679Z,1.60
2022-08-24T08:56:03.761Z,1.10
2022-08-24T08:58:59.501Z,1.40
2022-08-24T09:02:16.661Z,1.50
2022-08-24T09:04:59.126Z,1.30
2022-08-24T09:07:45.519Z,1.20
2022-08-24T09:10:21.965Z,1.85
2022-08-24T09:13:14.328Z,1.60
2022-08-24T09:16:07.182Z,2.25
2022-08-24T09:19:13.641Z,1.80
2022-08-24T09:21:56.329Z,2.47
2022-08-24T09:24:36.264Z,2.10
2022-08-24T09:27:36.248Z,1.83
2022-08-24T09:30:22.011Z,2.38
2022-08-24T09:32:50.665Z,2.30
2022-08-24T09:35:31.812Z,3.40
2022-08-24T09:38:38.995Z,2.17
2022-08-24T09:41:12.460Z,2.00
2022-08-24T09:44:19.249Z,1.75
2022-08-24T09:46:59.653Z,2.00
2022-08-24T09:49:50.721Z,2.08
2022-08-24T09:52:27.528Z,2.88
2022-08-24T09:55:14.626Z,2.10
2022-08-24T09:58:01.696Z,1.77
2022-08-24T10:01:10.431Z,3.63
2022-08-24T10:04:14.956Z,1.90
2022-08-24T10:07:18.000Z,2.22
2022-08-24T10:10:08.698Z,1.50
2022-08-24T10:13:00.489Z,1.38
2022-08-24T10:15:58.710Z,1.88
2022-08-24T10:18:35.235Z,2.30
2022-08-24T10:21:32.930Z,1.70
2022-08-24T10:24:26.623Z,1.73
2022-08-24T10:27:02.210Z,8.07
2022-08-24T10:29:58.140Z,1.80
2022-08-24T10:35:10.175Z,1.60
2022-08-24T10:37:51.856Z,1.48
2022-08-24T10:40:55.239Z,2.58
2022-08-24T10:43:38.897Z,1.70
2022-08-24T10:46:38.059Z,1.40
2022-08-24T10:49:37.005Z,2.03
2022-08-24T10:52:16.267Z,2.03
2022-08-24T10:54:45.764Z,1.67
2022-08-24T10:57:40.801Z,1.20
2022-08-24T11:00:22.600Z,2.08
2022-08-24T11:03:27.940Z,3.35
2022-08-24T11:06:25.691Z,1.50
2022-08-24T11:09:17.216Z,1.40
2022-08-24T11:11:50.061Z,1.50
2022-08-24T11:14:29.824Z,1.73
2022-08-24T11:17:19.425Z,1.10
2022-08-24T11:19:49.054Z,1.33
2022-08-24T11:22:57.175Z,1.00
2022-08-24T11:25:32.330Z,1.23
2022-08-24T11:28:06.263Z,1.17
2022-08-24T11:33:33.903Z,1.85
2022-08-24T11:36:02.778Z,1.70
2022-08-24T11:38:35.077Z,1.58
2022-08-24T11:41:22.357Z,1.73
2022-08-24T11:44:30.261Z,1.92
2022-08-24T11:47:30.180Z,1.63
2022-08-24T11:50:23.005Z,1.63
2022-08-24T11:56:26.799Z,1.55
2022-08-24T11:59:06.997Z,1.50
2022-08-24T12:01:57.095Z,2.22
2022-08-24T12:04:40.528Z,1.35
2022-08-24T12:07:31.651Z,1.27
2022-08-24T12:10:37.700Z,2.70
2022-08-24T12:13:20.998Z,1.77
2022-08-24T12:16:09.824Z,1.43
2022-08-24T12:19:11.805Z,1.98
2022-08-24T12:21:45.383Z,1.75
2022-08-24T12:24:39.254Z,1.65
2022-08-24T12:27:32.301Z,1.50
2022-08-24T12:30:08.623Z,1.27
2022-08-24T12:32:46.799Z,2.25
2022-08-24T12:35:28.463Z,1.70
2022-08-24T12:38:22.144Z,1.23
2022-08-24T12:41:11.137Z,1.77
2022-08-24T12:44:01.725Z,1.27
2022-08-24T12:46:30.428Z,1.90
2022-08-24T12:49:19.997Z,2.10
2022-08-24T12:52:36.741Z,2.40
2022-08-24T12:55:31.796Z,1.90
2022-08-24T12:58:32.200Z,1.98
2022-08-24T13:01:08.617Z,1.83
2022-08-24T13:03:39.593Z,1.80
2022-08-24T13:06:31.987Z,1.55
2022-08-24T13:09:26.089Z,2.00
2022-08-24T13:11:56.892Z,1.85
2022-08-24T13:14:29.799Z,1.60
2022-08-24T13:17:05.557Z,1.48
2022-08-24T13:19:38.722Z,1.20
2022-08-24T13:22:10.024Z,1.50
2022-08-24T13:24:42.814Z,1.20
2022-08-24T13:27:16.129Z,1.30
2022-08-24T13:30:06.474Z,1.70
2022-08-24T13:32:44.326Z,1.20
2022-08-24T13:35:37.445Z,1.20
2022-08-24T13:38:24.358Z,1.52
2022-08-24T13:41:05.949Z,1.75
2022-08-24T13:43:46.217Z,2.17
2022-08-24T13:46:48.788Z,2.30
2022-08-24T13:49:49.292Z,1.63
2022-08-24T13:52:37.817Z,1.23
2022-08-24T13:55:33.997Z,1.10
2022-08-24T13:58:23.740Z,1.70
2022-08-24T14:01:34.670Z,1.33
2022-08-24T14:04:26.769Z,1.65
2022-08-24T14:07:07.286Z,1.55
2022-08-24T14:09:39.500Z,1.48
2022-08-24T14:12:13.304Z,1.40
2022-08-24T14:14:41.245Z,1.83
2022-08-24T14:17:55.494Z,1.35
2022-08-24T14:21:11.810Z,1.70
2022-08-24T14:23:59.992Z,1.50
2022-08-24T14:26:43.605Z,1.50
2022-08-24T14:29:19.728Z,1.15
2022-08-24T14:32:12.214Z,1.73
2022-08-24T14:35:12.423Z,1.42
2022-08-24T14:37:58.985Z,1.67
2022-08-24T14:40:37.730Z,1.83
2022-08-24T14:43:11.658Z,1.85
2022-08-24T14:46:17.124Z,3.53
2022-08-24T14:51:55.645Z,1.73
2022-08-24T14:54:33.011Z,1.52
2022-08-24T14:57:06.894Z,2.30
2022-08-24T15:00:04.052Z,2.10
2022-08-24T15:02:55.026Z,2.10
2022-08-24T15:05:44.473Z,2.17
2022-08-24T15:08:42.801Z,1.52
2022-08-24T15:11:18.461Z,1.20
2022-08-24T15:13:49.257Z,2.30
2022-08-24T15:16:54.172Z,2.17
2022-08-24T15:19:32.416Z,1.75
2022-08-24T15:22:21.369Z,1.25
2022-08-24T15:25:03.606Z,1.38
2022-08-24T15:27:43.301Z,2.40
2022-08-24T15:30:33.725Z,1.92
2022-08-24T15:33:05.625Z,1.80
2022-08-24T15:35:49.212Z,1.70
2022-08-24T15:38:35.998Z,1.23
2022-08-24T15:41:12.714Z,2.00
2022-08-24T15:43:56.589Z,2.00
2022-08-24T15:46:34.385Z,1.33
2022-08-24T15:49:16.605Z,3.20
2022-08-24T15:51:55.356Z,1.92
2022-08-24T15:54:24.870Z,2.05
2022-08-24T15:56:57.741Z,1.75
2022-08-24T15:59:39.397Z,2.00
2022-08-24T16:02:26.562Z,1.55
2022-08-24T16:05:16.971Z,1.48
2022-08-24T16:08:07.374Z,1.33
2022-08-24T16:10:50.255Z,6.90
2022-08-24T16:13:18.565Z,3.03
2022-08-24T16:16:05.248Z,1.42
2022-08-24T16:18:55.678Z,1.85
2022-08-24T16:22:02.230Z,2.65
2022-08-24T16:24:35.136Z,1.65
2022-08-24T16:27:14.258Z,1.30
2022-08-24T16:29:55.725Z,1.67
2022-08-24T16:32:51.690Z,2.83
2022-08-24T16:35:25.267Z,1.77
2022-08-24T16:37:55.832Z,1.48
2022-08-24T16:40:24.872Z,1.70
2022-08-24T16:42:56.635Z,1.42
2022-08-24T16:45:24.651Z,1.58
2022-08-24T16:47:52.547Z,2.13
2022-08-24T16:50:21.998Z,1.83
2022-08-24T16:52:55.246Z,2.30
2022-08-24T16:55:23.508Z,1.92
2022-08-24T16:57:51.589Z,1.55
2022-08-24T17:00:22.366Z,2.15
2022-08-24T17:02:50.777Z,2.00
2022-08-24T17:05:50.783Z,1.85
2022-08-24T17:08:27.265Z,1.83
2022-08-24T17:10:56.586Z,1.92
2022-08-24T17:13:48.513Z,1.70
2022-08-24T17:16:14.767Z,1.40
2022-08-24T17:18:43.162Z,2.15
2022-08-24T17:21:19.432Z,2.17
2022-08-24T17:23:49.126Z,1.27
2022-08-24T17:26:20.279Z,1.45
2022-08-24T17:28:55.014Z,1.20
2022-08-24T17:31:26.504Z,1.95
2022-08-24T17:33:54.849Z,1.13
2022-08-24T17:36:24.048Z,1.17
2022-08-24T17:38:56.018Z,1.60
2022-08-24T17:41:26.162Z,1.50
2022-08-24T17:43:55.183Z,2.83
2022-08-24T17:46:24.098Z,1.95
2022-08-24T17:48:57.856Z,2.20
2022-08-24T17:51:26.228Z,2.33
2022-08-24T17:53:54.152Z,1.70
2022-08-24T17:56:22.742Z,2.72
2022-08-24T17:59:08.840Z,2.20
2022-08-24T18:01:36.940Z,3.83
2022-08-24T18:04:05.249Z,2.53
2022-08-24T18:06:34.595Z,3.30
2022-08-24T18:09:07.198Z,3.80
2022-08-24T18:11:35.395Z,4.65
2022-08-24T18:14:03.729Z,4.10
2022-08-24T18:16:32.987Z,4.90
2022-08-24T18:19:01.207Z,3.65
2022-08-24T18:21:30.006Z,5.40
2022-08-24T18:23:58.974Z,4.93
2022-08-24T18:26:28.928Z,5.53
2022-08-24T18:33:17.896Z,4.18
2022-08-24T18:35:51.135Z,3.80
2022-08-24T18:38:26.793Z,4.13
2022-08-24T18:40:58.075Z,2.58
2022-08-24T18:43:34.062Z,3.00
2022-08-24T18:46:03.819Z,1.88
2022-08-24T18:48:33.804Z,1.50
2022-08-24T18:51:03.855Z,2.00
2022-08-24T18:53:34.615Z,2.47
2022-08-24T18:56:10.465Z,1.95
2022-08-24T18:58:41.785Z,2.20
2022-08-24T19:01:11.932Z,2.67
2022-08-24T19:03:44.298Z,2.00
2022-08-24T19:06:12.199Z,2.00
2022-08-24T19:08:40.658Z,2.10
2022-08-24T19:11:10.647Z,1.92
2022-08-24T19:13:43.098Z,2.17
2022-08-24T19:16:11.850Z,2.20
2022-08-24T19:18:49.643Z,1.90
2022-08-24T19:21:18.582Z,2.00
2022-08-24T19:23:48.835Z,2.00
2022-08-24T19:26:19.387Z,2.17
2022-08-24T19:28:49.133Z,2.53
2022-08-24T19:31:21.329Z,1.80
2022-08-24T19:33:50.076Z,1.55
2022-08-24T19:36:19.179Z,1.98
2022-08-24T19:38:47.704Z,1.75
2022-08-24T19:41:21.475Z,2.33
2022-08-24T19:44:23.425Z,1.88
2022-08-24T19:46:57.311Z,1.90
2022-08-24T19:49:26.588Z,1.70
2022-08-24T19:51:57.061Z,1.95
2022-08-24T19:54:25.798Z,1.90
2022-08-24T19:56:54.579Z,2.13
2022-08-24T19:59:31.274Z,1.80
2022-08-24T20:02:05.182Z,2.00
2022-08-24T20:04:33.935Z,1.95
2022-08-24T20:07:03.795Z,1.40
2022-08-24T20:10:12.698Z,1.88
2022-08-24T20:12:42.443Z,1.80
2022-08-24T20:15:17.863Z,1.88
2022-08-24T20:17:57.528Z,1.83
2022-08-24T20:20:28.207Z,2.22
2022-08-24T20:22:57.139Z,2.08
2022-08-24T20:25:25.707Z,2.33
2022-08-24T20:28:12.467Z,2.00
2022-08-24T20:30:55.006Z,1.75
2022-08-24T20:33:27.804Z,2.40
2022-08-24T20:35:57.496Z,1.95
2022-08-24T20:38:31.728Z,1.88
2022-08-24T20:41:02.236Z,2.42
2022-08-24T20:43:31.858Z,2.95
2022-08-24T20:46:04.405Z,2.50
2022-08-24T20:48:43.214Z,2.58
2022-08-24T20:51:14.551Z,2.85
2022-08-24T20:53:45.842Z,2.40
2022-08-24T20:56:46.387Z,2.70
2022-08-24T20:59:16.431Z,2.25
2022-08-24T21:01:47.469Z,2.63
2022-08-24T21:04:15.975Z,2.22
2022-08-24T21:06:46.448Z,2.50
2022-08-24T21:09:19.450Z,3.13
2022-08-24T21:11:52.333Z,2.53
2022-08-24T21:14:22.189Z,2.72
2022-08-24T21:16:51.606Z,2.92
2022-08-24T21:19:20.120Z,2.63
2022-08-24T21:22:21.950Z,3.33
2022-08-24T21:24:50.850Z,2.40
2022-08-24T21:27:24.193Z,2.83
2022-08-24T21:29:53.111Z,2.90
2022-08-24T21:32:47.709Z,2.92
2022-08-24T21:35:20.099Z,2.90
2022-08-24T21:37:49.681Z,3.28
2022-08-24T21:40:18.918Z,3.13
2022-08-24T21:42:48.457Z,3.50
2022-08-24T21:45:26.156Z,3.53
2022-08-24T21:48:01.218Z,3.22
2022-08-24T21:52:59.504Z,3.42
2022-08-24T21:55:28.457Z,3.63
2022-08-24T21:57:56.981Z,3.15
2022-08-24T22:00:35.871Z,3.65
2022-08-24T22:03:11.690Z,3.20
2022-08-24T22:05:48.161Z,3.47
2022-08-24T22:08:16.630Z,3.08
2022-08-24T22:11:19.378Z,3.83
2022-08-24T22:13:56.350Z,4.05
2022-08-24T22:16:30.681Z,4.15
2022-08-24T22:19:04.569Z,3.40
2022-08-24T22:21:35.789Z,3.63
2022-08-24T22:24:14.144Z,4.20
2022-08-24T22:26:43.290Z,3.97
2022-08-24T22:29:18.350Z,4.60
2022-08-24T22:31:47.758Z,3.53
2022-08-24T22:34:21.951Z,3.70
2022-08-24T22:36:50.699Z,3.92
2022-08-24T22:39:26.375Z,3.83
2022-08-24T22:41:58.887Z,4.00
2022-08-24T22:44:31.060Z,3.88
2022-08-24T22:47:33.631Z,3.60
2022-08-24T22:50:02.216Z,3.50
2022-08-24T22:52:30.659Z,3.85
2022-08-24T22:55:03.171Z,3.17
2022-08-24T22:57:31.752Z,3.30
2022-08-24T23:00:02.513Z,4.03
2022-08-24T23:02:31.640Z,3.25
2022-08-24T23:04:59.706Z,3.67
2022-08-24T23:07:28.710Z,3.72
2022-08-24T23:09:58.865Z,3.65
2022-08-24T23:12:29.017Z,4.97
2022-08-24T23:14:58.771Z,3.70
2022-08-24T23:17:36.906Z,3.72
2022-08-24T23:20:10.184Z,4.07
2022-08-24T23:22:43.821Z,3.35
2022-08-24T23:25:14.241Z,4.00
2022-08-24T23:27:51.400Z,3.53
2022-08-24T23:30:26.287Z,3.35
2022-08-24T23:35:24.499Z,3.42
2022-08-24T23:37:53.480Z,3.95
2022-08-24T23:40:22.251Z,3.17
2022-08-24T23:42:52.181Z,3.40
2022-08-24T23:45:28.380Z,3.97
2022-08-24T23:48:00.156Z,3.83
2022-08-24T23:50:32.199Z,4.20
2022-08-24T23:53:03.711Z,3.55
2022-08-24T23:55:32.765Z,3.90
2022-08-24T23:58:32.933Z,3.38
